createdAt,value
2023-03-27T00:01:24.149Z,4.27
2023-03-27T00:03:53.468Z,4.28
2023-03-27T00:06:21.933Z,4.22
2023-03-27T00:08:51.273Z,4.21
2023-03-27T00:11:19.297Z,4.18
2023-03-27T00:13:50.185Z,4.18
2023-03-27T00:16:20.287Z,4.18
2023-03-27T00:18:47.309Z,4.16
2023-03-27T00:21:14.466Z,4.14
2023-03-27T00:23:42.437Z,4.11
2023-03-27T00:26:12.092Z,4.09
2023-03-27T00:28:38.982Z,4.08
2023-03-27T00:31:10.876Z,4.04
2023-03-27T00:33:37.686Z,4.03
2023-03-27T00:36:04.653Z,4.03
2023-03-27T00:38:31.505Z,4.01
2023-03-27T00:40:58.407Z,3.98
2023-03-27T00:43:34.098Z,3.94
2023-03-27T00:46:14.686Z,3.91
2023-03-27T00:48:47.090Z,3.91
2023-03-27T00:51:14.565Z,3.90
2023-03-27T00:53:42.647Z,3.89
2023-03-27T00:56:10.531Z,3.89
2023-03-27T00:58:53.733Z,3.85
2023-03-27T01:01:23.879Z,3.84
2023-03-27T01:03:53.884Z,3.83
2023-03-27T01:06:21.938Z,3.79
2023-03-27T01:08:48.880Z,3.76
2023-03-27T01:11:21.215Z,3.76
2023-03-27T01:13:56.125Z,3.72
2023-03-27T01:16:41.023Z,3.68
2023-03-27T01:19:26.408Z,3.69
2023-03-27T01:22:07.369Z,3.69
2023-03-27T01:24:49.005Z,3.65
2023-03-27T01:27:26.425Z,3.59
2023-03-27T01:29:59.224Z,3.53
2023-03-27T01:32:36.393Z,3.51
2023-03-27T01:35:33.810Z,3.50
2023-03-27T01:38:03.917Z,3.49
2023-03-27T01:40:41.706Z,3.49
2023-03-27T01:43:17.133Z,3.46
2023-03-27T01:46:05.778Z,3.45
2023-03-27T01:48:50.641Z,3.44
2023-03-27T01:51:24.645Z,3.42
2023-03-27T01:54:07.868Z,3.39
2023-03-27T01:56:39.550Z,3.38
2023-03-27T01:59:16.528Z,3.36
2023-03-27T02:01:53.567Z,3.35
2023-03-27T02:04:29.097Z,3.33
2023-03-27T02:07:01.808Z,3.33
2023-03-27T02:09:53.187Z,3.33
2023-03-27T02:12:43.402Z,3.30
2023-03-27T02:15:23.934Z,3.29
2023-03-27T02:18:10.192Z,3.29
2023-03-27T02:20:38.765Z,3.27
2023-03-27T02:23:06.601Z,3.25
2023-03-27T02:25:39.733Z,3.21
2023-03-27T02:28:29.299Z,3.19
2023-03-27T02:31:33.919Z,3.17
2023-03-27T02:34:20.123Z,3.14
2023-03-27T02:37:16.330Z,3.12
2023-03-27T02:39:51.755Z,3.11
2023-03-27T02:42:20.914Z,3.10
2023-03-27T02:45:10.337Z,3.11
2023-03-27T02:47:43.038Z,3.12
2023-03-27T02:50:16.443Z,3.16
2023-03-27T02:52:48.183Z,3.14
2023-03-27T02:55:23.461Z,3.06
2023-03-27T02:57:59.591Z,3.02
2023-03-27T03:03:28.008Z,2.97
2023-03-27T03:05:57.915Z,2.90
2023-03-27T03:08:25.505Z,2.78
2023-03-27T03:10:52.238Z,2.75
2023-03-27T03:13:19.606Z,2.72
2023-03-27T03:15:46.652Z,2.70
2023-03-27T03:18:14.177Z,2.67
2023-03-27T03:20:41.280Z,2.68
2023-03-27T03:23:08.058Z,2.64
2023-03-27T03:25:34.721Z,2.68
2023-03-27T03:28:01.378Z,2.72
2023-03-27T03:30:30.380Z,2.64
2023-03-27T03:32:57.484Z,2.57
2023-03-27T03:35:25.198Z,2.53
2023-03-27T03:37:52.869Z,2.58
2023-03-27T03:40:20.447Z,2.53
2023-03-27T03:42:48.602Z,2.43
2023-03-27T03:45:17.246Z,2.41
2023-03-27T03:47:44.977Z,2.47
2023-03-27T03:50:12.872Z,2.46
2023-03-27T03:52:39.934Z,2.39
2023-03-27T03:55:07.385Z,2.37
2023-03-27T03:57:34.085Z,2.31
2023-03-27T04:00:01.148Z,2.25
2023-03-27T04:02:29.061Z,2.22
2023-03-27T04:04:59.976Z,2.15
2023-03-27T04:07:31.655Z,2.10
2023-03-27T04:10:01.651Z,2.09
2023-03-27T04:12:28.716Z,2.07
2023-03-27T04:14:55.652Z,2.01
2023-03-27T04:17:26.349Z,2.01
2023-03-27T04:19:55.364Z,2.05
2023-03-27T04:22:23.656Z,2.01
2023-03-27T04:24:50.677Z,1.96
2023-03-27T04:27:17.983Z,1.94
2023-03-27T04:29:47.370Z,1.89
2023-03-27T04:32:19.358Z,1.87
2023-03-27T04:34:48.337Z,1.80
2023-03-27T04:37:15.174Z,1.78
2023-03-27T04:39:46.378Z,1.79
2023-03-27T04:42:16.871Z,1.77
2023-03-27T04:44:46.492Z,1.78
2023-03-27T04:47:13.333Z,1.77
2023-03-27T04:49:49.726Z,1.71
2023-03-27T04:52:18.073Z,1.65
2023-03-27T04:54:45.047Z,1.64
2023-03-27T04:57:12.034Z,1.69
2023-03-27T04:59:38.816Z,1.76
2023-03-27T05:02:06.521Z,1.82
2023-03-27T05:04:33.563Z,1.90
2023-03-27T05:07:00.885Z,1.94
2023-03-27T05:09:27.598Z,1.90
2023-03-27T05:11:54.556Z,1.82
2023-03-27T05:14:23.605Z,1.75
2023-03-27T05:16:52.311Z,1.76
2023-03-27T05:19:20.307Z,1.75
2023-03-27T05:21:47.248Z,1.72
2023-03-27T05:24:15.506Z,1.71
2023-03-27T05:26:43.375Z,1.72
2023-03-27T05:29:10.552Z,1.70
2023-03-27T05:31:37.636Z,1.71
2023-03-27T05:34:05.736Z,1.71
2023-03-27T05:36:35.505Z,1.71
2023-03-27T05:39:02.301Z,1.70
2023-03-27T05:41:28.932Z,1.68
2023-03-27T05:43:55.698Z,1.62
2023-03-27T05:46:22.444Z,1.61
2023-03-27T05:48:49.327Z,1.58
2023-03-27T05:51:16.614Z,1.54
2023-03-27T05:53:43.668Z,1.51
2023-03-27T05:56:10.718Z,1.48
2023-03-27T05:58:37.535Z,1.48
2023-03-27T06:01:04.897Z,1.46
2023-03-27T06:03:34.990Z,1.45
2023-03-27T06:06:12.195Z,1.42
2023-03-27T06:08:39.190Z,1.42
2023-03-27T06:11:10.488Z,1.44
2023-03-27T06:13:38.036Z,1.42
2023-03-27T06:16:05.818Z,1.38
2023-03-27T06:18:33.740Z,1.38
2023-03-27T06:21:01.836Z,1.39
2023-03-27T06:23:28.514Z,1.36
2023-03-27T06:25:55.527Z,1.37
2023-03-27T06:28:22.747Z,1.37
2023-03-27T06:30:50.399Z,1.38
2023-03-27T06:33:17.144Z,1.39
2023-03-27T06:35:53.130Z,1.39
2023-03-27T06:38:21.135Z,1.40
2023-03-27T06:40:47.888Z,1.43
2023-03-27T06:43:18.176Z,1.47
2023-03-27T06:45:47.420Z,1.47
2023-03-27T06:48:21.458Z,1.48
2023-03-27T06:50:51.556Z,1.50
2023-03-27T06:53:27.111Z,1.54
2023-03-27T06:55:56.878Z,1.60
2023-03-27T06:58:24.668Z,1.65
2023-03-27T07:00:51.790Z,1.71
2023-03-27T07:03:21.475Z,1.79
2023-03-27T07:05:49.063Z,1.84
2023-03-27T07:08:24.124Z,1.90
2023-03-27T07:11:07.937Z,1.99
2023-03-27T07:13:38.689Z,2.07
2023-03-27T07:16:05.918Z,2.13
2023-03-27T07:18:32.765Z,2.23
2023-03-27T07:20:59.856Z,2.28
2023-03-27T07:23:26.897Z,2.33
2023-03-27T07:26:00.602Z,2.41
2023-03-27T07:28:27.802Z,2.49
2023-03-27T07:30:54.410Z,2.57
2023-03-27T07:33:21.303Z,2.65
2023-03-27T07:35:49.332Z,2.73
2023-03-27T07:38:17.546Z,2.81
2023-03-27T07:40:46.607Z,2.89
2023-03-27T07:43:13.836Z,2.96
2023-03-27T07:45:42.084Z,3.04
2023-03-27T07:48:12.192Z,3.12
2023-03-27T07:50:39.162Z,3.20
2023-03-27T07:53:08.840Z,3.26
2023-03-27T07:55:38.051Z,3.34
2023-03-27T07:58:07.017Z,3.41
2023-03-27T08:00:36.001Z,3.47
2023-03-27T08:03:11.739Z,3.53
2023-03-27T08:05:38.541Z,3.57
2023-03-27T08:08:05.265Z,3.63
2023-03-27T08:10:33.799Z,3.70
2023-03-27T08:13:01.123Z,3.76
2023-03-27T08:15:27.719Z,3.83
2023-03-27T08:17:56.670Z,3.90
2023-03-27T08:20:24.170Z,3.97
2023-03-27T08:22:54.299Z,4.02
2023-03-27T08:25:24.577Z,4.03
2023-03-27T08:27:51.278Z,4.07
2023-03-27T08:30:19.114Z,4.14
2023-03-27T08:32:46.465Z,4.23
2023-03-27T08:35:13.679Z,4.41
2023-03-27T08:37:41.508Z,4.60
2023-03-27T08:40:19.092Z,4.83
2023-03-27T08:42:50.431Z,5.00
2023-03-27T08:45:42.927Z,5.15
2023-03-27T08:48:21.912Z,5.26
2023-03-27T08:51:03.740Z,5.36
2023-03-27T08:53:56.380Z,5.54
2023-03-27T08:56:25.441Z,5.80
2023-03-27T08:58:53.436Z,6.15
2023-03-27T09:01:22.825Z,6.53
2023-03-27T09:03:55.911Z,6.89
2023-03-27T09:06:38.336Z,7.17
2023-03-27T09:09:20.048Z,7.31
2023-03-27T09:12:02.665Z,7.39
2023-03-27T09:14:36.638Z,7.55
2023-03-27T09:17:11.996Z,7.75
2023-03-27T09:19:48.471Z,8.39
2023-03-27T09:22:22.673Z,9.16
2023-03-27T09:24:54.258Z,9.87
2023-03-27T09:27:26.699Z,10.80
2023-03-27T09:30:06.049Z,11.45
2023-03-27T09:32:35.104Z,12.58
2023-03-27T09:35:01.998Z,13.23
2023-03-27T09:37:28.732Z,13.70
2023-03-27T09:39:58.857Z,14.24
2023-03-27T09:42:32.055Z,14.82
2023-03-27T09:45:03.427Z,15.10
2023-03-27T09:48:01.523Z,15.05
2023-03-27T09:50:41.499Z,15.31
2023-03-27T09:53:08.293Z,15.60
2023-03-27T09:55:35.381Z,15.79
2023-03-27T09:58:20.611Z,16.03
2023-03-27T10:00:47.298Z,15.92
2023-03-27T10:03:18.003Z,15.41
2023-03-27T10:05:47.004Z,14.75
2023-03-27T10:08:26.657Z,14.37
2023-03-27T10:10:59.002Z,14.08
2023-03-27T10:13:29.330Z,14.22
2023-03-27T10:16:01.936Z,14.57
2023-03-27T10:18:31.815Z,15.04
2023-03-27T10:21:02.525Z,15.64
2023-03-27T10:23:41.289Z,15.97
2023-03-27T10:26:12.016Z,16.17
2023-03-27T10:28:40.902Z,16.32
2023-03-27T10:31:30.153Z,16.20
2023-03-27T10:34:00.428Z,16.33
2023-03-27T10:36:27.952Z,16.41
2023-03-27T10:39:02.377Z,16.17
2023-03-27T10:41:30.888Z,15.87
2023-03-27T10:43:58.151Z,15.79
2023-03-27T10:46:28.347Z,15.51
2023-03-27T10:49:11.233Z,15.23
2023-03-27T10:51:58.057Z,15.11
2023-03-27T10:54:38.443Z,14.92
2023-03-27T10:57:23.335Z,14.40
2023-03-27T10:59:59.345Z,14.13
2023-03-27T11:02:43.024Z,13.84
2023-03-27T11:05:37.248Z,13.57
2023-03-27T11:08:21.753Z,13.28
2023-03-27T11:10:49.579Z,13.05
2023-03-27T11:13:32.414Z,12.59
2023-03-27T11:16:23.677Z,12.25
2023-03-27T11:18:57.244Z,11.92
2023-03-27T11:21:35.867Z,11.66
2023-03-27T11:24:07.380Z,11.34
2023-03-27T11:26:38.189Z,10.97
2023-03-27T11:29:16.984Z,10.58
2023-03-27T11:31:51.165Z,10.25
2023-03-27T11:34:37.023Z,10.12
2023-03-27T11:37:35.508Z,9.93
2023-03-27T11:40:20.398Z,9.70
2023-03-27T11:42:48.083Z,9.54
2023-03-27T11:45:18.087Z,9.54
2023-03-27T11:47:56.622Z,9.47
2023-03-27T11:50:35.572Z,9.50
2023-03-27T11:53:39.114Z,9.55
2023-03-27T11:56:32.228Z,9.52
2023-03-27T11:59:27.598Z,9.56
2023-03-27T12:02:00.736Z,9.58
2023-03-27T12:04:52.352Z,9.70
2023-03-27T12:07:26.282Z,9.68
2023-03-27T12:10:21.897Z,9.56
2023-03-27T12:13:02.424Z,9.40
2023-03-27T12:15:44.337Z,9.31
2023-03-27T12:18:35.872Z,9.27
2023-03-27T12:21:05.945Z,9.28
2023-03-27T12:23:58.435Z,9.37
2023-03-27T12:26:43.748Z,9.41
2023-03-27T12:29:52.082Z,9.35
2023-03-27T12:32:38.993Z,9.37
2023-03-27T12:35:11.540Z,9.45
2023-03-27T12:37:50.825Z,9.55
2023-03-27T12:40:47.866Z,9.68
2023-03-27T12:43:39.762Z,9.75
2023-03-27T12:46:24.603Z,9.82
2023-03-27T12:48:54.087Z,9.93
2023-03-27T12:51:41.336Z,10.12
2023-03-27T12:54:23.950Z,10.21
2023-03-27T12:57:13.206Z,10.14
2023-03-27T13:00:09.459Z,9.92
2023-03-27T13:03:02.797Z,9.92
2023-03-27T13:05:43.899Z,10.21
2023-03-27T13:08:26.374Z,10.55
2023-03-27T13:11:12.669Z,10.74
2023-03-27T13:14:05.223Z,10.74
2023-03-27T13:16:39.506Z,10.65
2023-03-27T13:19:41.676Z,10.58
2023-03-27T13:22:20.413Z,10.55
2023-03-27T13:25:04.393Z,10.45
2023-03-27T13:27:38.710Z,10.32
2023-03-27T13:30:07.529Z,10.41
2023-03-27T13:32:41.311Z,10.60
2023-03-27T13:35:21.092Z,10.69
2023-03-27T13:37:50.753Z,10.71
2023-03-27T13:40:31.145Z,10.71
2023-03-27T13:43:16.237Z,10.67
2023-03-27T13:45:49.909Z,10.62
2023-03-27T13:48:16.514Z,10.62
2023-03-27T13:51:01.982Z,10.62
2023-03-27T13:53:34.682Z,10.72
2023-03-27T13:56:09.858Z,10.73
2023-03-27T13:58:55.834Z,10.58
2023-03-27T14:01:34.298Z,10.51
2023-03-27T14:04:09.975Z,10.60
2023-03-27T14:07:06.590Z,10.78
2023-03-27T14:09:54.199Z,10.81
2023-03-27T14:12:49.466Z,10.87
2023-03-27T14:15:32.825Z,10.71
2023-03-27T14:18:21.267Z,10.50
2023-03-27T14:20:55.546Z,10.24
2023-03-27T14:23:28.504Z,10.13
2023-03-27T14:26:03.571Z,10.06
2023-03-27T14:28:59.050Z,10.05
2023-03-27T14:31:28.820Z,10.12
2023-03-27T14:34:12.708Z,10.16
2023-03-27T14:36:46.054Z,10.19
2023-03-27T14:39:18.890Z,10.24
2023-03-27T14:41:46.772Z,10.26
2023-03-27T14:44:13.524Z,10.25
2023-03-27T14:46:45.107Z,10.23
2023-03-27T14:49:15.719Z,10.28
2023-03-27T14:51:42.748Z,10.37
2023-03-27T14:54:39.169Z,10.38
2023-03-27T14:57:14.445Z,10.39
2023-03-27T14:59:43.994Z,10.37
2023-03-27T15:02:19.528Z,10.38
2023-03-27T15:04:46.512Z,10.35
2023-03-27T15:07:22.343Z,10.29
2023-03-27T15:10:24.360Z,10.31
2023-03-27T15:12:51.565Z,10.43
2023-03-27T15:15:31.019Z,10.65
2023-03-27T15:18:00.002Z,10.81
2023-03-27T15:20:31.864Z,10.92
2023-03-27T15:23:09.883Z,11.03
2023-03-27T15:26:04.254Z,11.18
2023-03-27T15:28:38.905Z,11.35
2023-03-27T15:31:07.542Z,11.51
2023-03-27T15:33:41.181Z,11.55
2023-03-27T15:36:26.282Z,11.53
2023-03-27T15:38:55.550Z,11.44
2023-03-27T15:41:28.445Z,11.37
2023-03-27T15:44:04.174Z,11.24
2023-03-27T15:46:43.576Z,11.21
2023-03-27T15:49:22.866Z,11.15
2023-03-27T15:51:49.545Z,11.06
2023-03-27T15:54:26.713Z,11.00
2023-03-27T15:57:09.894Z,10.95
2023-03-27T15:59:52.158Z,11.00
2023-03-27T16:02:21.272Z,11.15
2023-03-27T16:04:57.325Z,11.28
2023-03-27T16:07:30.426Z,11.34
2023-03-27T16:10:05.261Z,11.35
2023-03-27T16:12:33.879Z,11.35
2023-03-27T16:15:05.798Z,11.22
2023-03-27T16:17:44.750Z,11.05
2023-03-27T16:20:12.776Z,10.90
2023-03-27T16:22:40.509Z,10.74
2023-03-27T16:25:09.875Z,10.72
2023-03-27T16:27:49.885Z,10.67
2023-03-27T16:30:32.381Z,10.61
2023-03-27T16:33:00.098Z,10.56
2023-03-27T16:35:27.976Z,10.50
2023-03-27T16:37:55.250Z,10.49
2023-03-27T16:40:21.938Z,10.52
2023-03-27T16:42:48.552Z,10.53
2023-03-27T16:45:15.529Z,10.43
2023-03-27T16:47:42.241Z,10.23
2023-03-27T16:50:16.896Z,10.06
2023-03-27T16:52:43.525Z,9.90
2023-03-27T16:55:11.535Z,9.81
2023-03-27T16:57:38.215Z,9.80
2023-03-27T17:00:06.006Z,9.79
2023-03-27T17:02:34.979Z,9.78
2023-03-27T17:05:03.007Z,9.81
2023-03-27T17:07:29.706Z,9.75
2023-03-27T17:09:56.515Z,9.69
2023-03-27T17:12:23.257Z,9.65
2023-03-27T17:14:49.957Z,9.63
2023-03-27T17:17:16.669Z,9.57
2023-03-27T17:19:43.335Z,9.50
2023-03-27T17:22:12.622Z,9.41
2023-03-27T17:24:53.318Z,9.33
2023-03-27T17:27:22.923Z,9.28
2023-03-27T17:29:49.547Z,9.22
2023-03-27T17:32:16.402Z,9.15
2023-03-27T17:34:43.181Z,9.08
2023-03-27T17:37:09.855Z,9.03
2023-03-27T17:39:36.719Z,9.00
2023-03-27T17:42:03.671Z,8.97
2023-03-27T17:44:30.390Z,8.91
2023-03-27T17:46:57.105Z,8.88
2023-03-27T17:49:23.803Z,8.83
2023-03-27T17:51:50.656Z,8.82
2023-03-27T17:54:17.536Z,8.77
2023-03-27T17:56:44.229Z,8.75
2023-03-27T17:59:11.001Z,8.72
2023-03-27T18:01:37.802Z,8.74
2023-03-27T18:04:04.679Z,8.73
2023-03-27T18:06:31.423Z,8.73
2023-03-27T18:08:58.561Z,8.72
2023-03-27T18:11:25.893Z,8.68
2023-03-27T18:13:53.315Z,8.62
2023-03-27T18:16:21.812Z,8.58
2023-03-27T18:18:48.952Z,8.56
2023-03-27T18:21:16.679Z,8.53
2023-03-27T18:23:45.914Z,8.52
2023-03-27T18:26:13.686Z,8.50
2023-03-27T18:28:40.386Z,8.44
2023-03-27T18:31:11.960Z,8.42
2023-03-27T18:33:38.922Z,8.36
2023-03-27T18:36:11.502Z,8.31
2023-03-27T18:38:40.217Z,8.26
2023-03-27T18:41:07.486Z,8.21
2023-03-27T18:43:34.545Z,8.18
2023-03-27T18:46:06.373Z,8.15
2023-03-27T18:48:34.384Z,8.09
2023-03-27T18:51:05.828Z,8.04
2023-03-27T18:53:32.612Z,8.02
2023-03-27T18:56:00.138Z,7.98
2023-03-27T18:58:28.755Z,7.96
2023-03-27T19:00:57.002Z,7.91
2023-03-27T19:03:26.009Z,7.86
2023-03-27T19:05:53.574Z,7.81
2023-03-27T19:08:22.020Z,7.78
2023-03-27T19:10:48.963Z,7.76
2023-03-27T19:13:16.076Z,7.74
2023-03-27T19:15:42.999Z,7.71
2023-03-27T19:18:10.018Z,7.69
2023-03-27T19:20:36.730Z,7.68
2023-03-27T19:23:04.075Z,7.63
2023-03-27T19:25:34.053Z,7.61
2023-03-27T19:28:05.648Z,7.61
2023-03-27T19:30:33.205Z,7.59
2023-03-27T19:32:59.978Z,7.57
2023-03-27T19:35:26.638Z,7.59
2023-03-27T19:37:54.615Z,7.58
2023-03-27T19:40:21.859Z,7.55
2023-03-27T19:42:48.656Z,7.56
2023-03-27T19:45:16.576Z,7.55
2023-03-27T19:47:43.493Z,7.54
2023-03-27T19:50:11.149Z,7.51
2023-03-27T19:52:37.967Z,7.49
2023-03-27T19:55:05.489Z,7.50
2023-03-27T19:57:32.616Z,7.49
2023-03-27T19:59:59.258Z,7.51
2023-03-27T20:02:27.573Z,7.52
2023-03-27T20:04:54.290Z,7.52
2023-03-27T20:07:20.929Z,7.51
2023-03-27T20:09:47.679Z,7.49
2023-03-27T20:12:14.335Z,7.47
2023-03-27T20:14:41.029Z,7.45
2023-03-27T20:17:12.183Z,7.46
2023-03-27T20:19:48.737Z,7.45
2023-03-27T20:22:20.658Z,7.46
2023-03-27T20:24:48.710Z,7.47
2023-03-27T20:27:19.815Z,7.48
2023-03-27T20:29:47.263Z,7.50
2023-03-27T20:32:14.342Z,7.49
2023-03-27T20:34:41.052Z,7.49
2023-03-27T20:37:12.025Z,7.47
2023-03-27T20:39:44.723Z,7.48
2023-03-27T20:42:16.628Z,7.47
2023-03-27T20:44:47.034Z,7.49
2023-03-27T20:47:15.190Z,7.49
2023-03-27T20:49:45.661Z,7.49
2023-03-27T20:52:14.631Z,7.49
2023-03-27T20:54:41.794Z,7.46
2023-03-27T20:57:08.948Z,7.45
2023-03-27T20:59:35.918Z,7.45
2023-03-27T21:02:02.779Z,7.43
2023-03-27T21:04:31.644Z,7.40
2023-03-27T21:06:58.872Z,7.39
2023-03-27T21:09:26.994Z,7.39
2023-03-27T21:11:55.336Z,7.39
2023-03-27T21:14:22.412Z,7.39
2023-03-27T21:16:49.159Z,7.39
2023-03-27T21:19:16.032Z,7.39
2023-03-27T21:21:42.773Z,7.41
2023-03-27T21:24:09.646Z,7.39
2023-03-27T21:26:36.796Z,7.40
2023-03-27T21:29:03.981Z,7.40
2023-03-27T21:31:30.859Z,7.41
2023-03-27T21:33:57.879Z,7.40
2023-03-27T21:36:27.227Z,7.41
2023-03-27T21:38:55.764Z,7.40
2023-03-27T21:41:22.586Z,7.41
2023-03-27T21:43:49.195Z,7.41
2023-03-27T21:46:16.112Z,7.43
2023-03-27T21:48:47.732Z,7.42
2023-03-27T21:51:14.497Z,7.42
2023-03-27T21:53:41.591Z,7.42
2023-03-27T21:56:08.644Z,7.42
2023-03-27T21:58:35.329Z,7.43
2023-03-27T22:01:02.048Z,7.44
2023-03-27T22:03:29.269Z,7.46
2023-03-27T22:06:10.027Z,7.46
2023-03-27T22:08:41.500Z,7.47
2023-03-27T22:11:08.808Z,7.46
2023-03-27T22:13:36.352Z,7.44
2023-03-27T22:16:12.088Z,7.44
2023-03-27T22:18:39.694Z,7.45
2023-03-27T22:21:17.952Z,7.45
2023-03-27T22:23:45.685Z,7.47
2023-03-27T22:26:12.561Z,7.46
2023-03-27T22:28:39.288Z,7.48
2023-03-27T22:31:06.349Z,7.49
2023-03-27T22:33:33.167Z,7.50
2023-03-27T22:36:00.025Z,7.51
2023-03-27T22:38:32.963Z,7.52
2023-03-27T22:40:59.814Z,7.52
2023-03-27T22:43:28.683Z,7.52
2023-03-27T22:45:55.958Z,7.54
2023-03-27T22:48:22.694Z,7.55
2023-03-27T22:50:56.774Z,7.56
2023-03-27T22:53:24.795Z,7.56
2023-03-27T22:55:56.896Z,7.56
2023-03-27T22:58:24.411Z,7.57
2023-03-27T23:00:53.308Z,7.57
2023-03-27T23:03:20.615Z,7.56
2023-03-27T23:05:49.234Z,7.56
2023-03-27T23:08:17.900Z,7.56
2023-03-27T23:10:45.335Z,7.55
2023-03-27T23:13:13.068Z,7.55
2023-03-27T23:15:39.703Z,7.55
2023-03-27T23:18:06.565Z,7.56
2023-03-27T23:20:33.372Z,7.55
2023-03-27T23:23:00.016Z,7.57
2023-03-27T23:25:26.666Z,7.57
2023-03-27T23:27:53.371Z,7.59
2023-03-27T23:30:20.430Z,7.58
2023-03-27T23:32:47.137Z,7.60
2023-03-27T23:35:13.950Z,7.60
2023-03-27T23:37:40.581Z,7.61
2023-03-27T23:40:07.960Z,7.63
2023-03-27T23:42:34.702Z,7.65
2023-03-27T23:45:01.534Z,7.66
2023-03-27T23:47:28.246Z,7.67
2023-03-27T23:49:54.944Z,7.68
2023-03-27T23:52:21.666Z,7.69
2023-03-27T23:54:48.335Z,7.71
2023-03-27T23:57:14.979Z,7.71
2023-03-27T23:59:41.712Z,7.74
